Time;durP1;ratioP1;P1;durP2;ratioP2;P2;SDS_P1;SDS_P2;PMS_P1;PMS_P2;Temp;Humidity;BMP_temperature;BMP_pressure;BME280_temperature;BME280_humidity;BME280_pressure;Samples;Min_cycle;Max_cycle;Signal;HPM_P1;HPM_P2
2023/10/30 00:00:36;;;;;;;;;;;;;;;;;;5071060;28;20596;-62
2023/10/30 00:03:03;;;;;;;;;;;;;;;;;;5071323;28;19939;-62
2023/10/30 00:05:29;;;;;;;;;;;;;;;;;;5068087;28;19912;-62
2023/10/30 00:07:55;;;;;;;;;;;;;;;;;;5061914;28;19967;-65
2023/10/30 00:10:21;;;;;;;;;;;;;;;;;;5071290;28;20349;-63
2023/10/30 00:12:47;;;;;;;;;;;;;;;;;;5071391;28;19917;-66
2023/10/30 00:15:13;;;;;;;;;;;;;;;;;;5071499;28;19982;-67
2023/10/30 00:17:39;;;;;;;;;;;;;;;;;;5071370;28;19919;-67
2023/10/30 00:20:05;;;;;;;;;;;;;;;;;;5071227;28;20376;-67
2023/10/30 00:22:31;;;;;;;;;;;;;;;;;;5069991;28;19912;-68
2023/10/30 00:24:57;;;;;;;;;;;;;;;;;;5069976;28;20018;-68
2023/10/30 00:27:23;;;;;;;;;;;;;;;;;;5067459;28;20352;-68
2023/10/30 00:29:49;;;;;;;;;;;;;;;;;;5070726;28;19912;-68
2023/10/30 00:32:15;;;;;;;;;;;;;;;;;;5074599;28;19916;-68
2023/10/30 00:34:41;;;;;;;;;;;;;;;;;;5074852;28;20003;-68
2023/10/30 00:37:07;;;;;;;;;;;;;;;;;;5073233;28;20452;-68
2023/10/30 00:39:33;;;;;;;;;;;;;;;;;;5074118;28;19916;-68
2023/10/30 00:41:59;;;;;;;;;;;;;;;;;;5074661;28;19995;-68
2023/10/30 00:44:25;;;;;;;;;;;;;;;;;;5074333;28;19920;-68
2023/10/30 00:46:54;;;;;;;;;;;;;;;;;;5073200;28;19960;-68
2023/10/30 00:49:20;;;;;;;;;;;;;;;;;;5074111;28;19913;-68
2023/10/30 00:51:46;;;;;;;;;;;;;;;;;;5066871;28;19951;-68
2023/10/30 00:54:12;;;;;;;;;;;;;;;;;;5073001;28;20011;-68
2023/10/30 00:56:38;;;;;;;;;;;;;;;;;;5068245;28;20471;-68
2023/10/30 00:59:03;;;;;;;;;;;;;;;;;;5070023;28;19913;-68
2023/10/30 01:01:29;;;;;;;;;;;;;;;;;;5073111;28;19913;-68
2023/10/30 01:03:55;;;;;;;;;;;;;;;;;;5069308;28;19997;-68
2023/10/30 01:06:21;;;;;;;;;;;;;;;;;;5073688;28;20077;-68
2023/10/30 01:08:47;;;;;;;;;;;;;;;;;;5065670;28;19917;-67
2023/10/30 01:11:13;;;;;;;;;;;;;;;;;;5053330;28;19913;-68
2023/10/30 01:13:39;;;;;;;;;;;;;;;;;;5072982;28;19999;-68
2023/10/30 01:16:05;;;;;;;;;;;;;;;;;;5073814;28;20025;-68
2023/10/30 01:18:31;;;;;;;;;;;;;;;;;;5073922;28;19917;-68
2023/10/30 01:20:57;;;;;;;;;;;;;;;;;;5069319;28;20013;-68
2023/10/30 01:23:23;;;;;;;;;;;;;;;;;;5073801;28;19952;-67
2023/10/30 01:25:49;;;;;;;;;;;;;;;;;;5069811;28;19924;-68
2023/10/30 01:28:15;;;;;;;;;;;;;;;;;;5076188;28;19912;-68
2023/10/30 01:30:41;;;;;;;;;;;;;;;;;;5072326;28;19923;-68
2023/10/30 01:33:07;;;;;;;;;;;;;;;;;;5073698;28;20364;-68
2023/10/30 01:35:33;;;;;;;;;;;;;;;;;;5071687;28;19912;-67
2023/10/30 01:37:59;;;;;;;;;;;;;;;;;;5077197;28;19961;-68
2023/10/30 01:40:25;;;;;;;;;;;;;;;;;;5072250;28;19975;-68
2023/10/30 01:42:51;;;;;;;;;;;;;;;;;;5070567;28;19924;-67
2023/10/30 01:45:17;;;;;;;;;;;;;;;;;;5073762;28;20337;-67
2023/10/30 01:47:43;;;;;;;;;;;;;;;;;;5073293;28;19916;-66
2023/10/30 01:50:10;;;;;;;;;;;;;;;;;;5072661;28;19946;-67
2023/10/30 01:52:36;;;;;;;;;;;;;;;;;;5073705;28;19924;-66
2023/10/30 01:55:02;;;;;;;;;;;;;;;;;;5073359;28;19916;-67
2023/10/30 01:57:28;;;;;;;;;;;;;;;;;;5070143;28;20372;-66
2023/10/30 01:59:54;;;;;;;;;;;;;;;;;;5071248;28;20016;-67
2023/10/30 02:02:20;;;;;;;;;;;;;;;;;;5072556;28;19920;-67
2023/10/30 02:04:46;;;;;;;;;;;;;;;;;;5070598;28;20025;-67
2023/10/30 02:07:12;;;;;;;;;;;;;;;;;;5072722;28;19925;-67
2023/10/30 02:09:38;;;;;;;;;;;;;;;;;;5067272;28;19913;-67
2023/10/30 02:12:04;;;;;;;;;;;;;;;;;;5072505;28;20262;-67
2023/10/30 02:14:29;;;;;;;;;;;;;;;;;;5068806;28;19916;-66
2023/10/30 02:16:55;;;;;;;;;;;;;;;;;;5073088;28;20013;-67
2023/10/30 02:19:21;;;;;;;;;;;;;;;;;;5072080;28;19913;-67
2023/10/30 02:21:47;;;;;;;;;;;;;;;;;;5073189;28;20007;-67
2023/10/30 02:24:13;;;;;;;;;;;;;;;;;;5072547;28;20353;-67
2023/10/30 02:26:39;;;;;;;;;;;;;;;;;;5071418;28;19928;-66
2023/10/30 02:29:05;;;;;;;;;;;;;;;;;;5071117;28;19958;-67
2023/10/30 02:31:32;;;;;;;;;;;;;;;;;;5072363;28;20019;-67
2023/10/30 02:33:58;;;;;;;;;;;;;;;;;;5072854;28;19913;-67
2023/10/30 02:36:24;;;;;;;;;;;;;;;;;;5072331;28;20015;-66
2023/10/30 02:38:50;;;;;;;;;;;;;;;;;;5072265;28;20293;-67
2023/10/30 02:41:16;;;;;;;;;;;;;;;;;;5071555;28;19920;-67
2023/10/30 02:43:42;;;;;;;;;;;;;;;;;;5069654;28;20003;-67
2023/10/30 02:46:08;;;;;;;;;;;;;;;;;;5070040;28;19932;-67
2023/10/30 02:48:34;;;;;;;;;;;;;;;;;;5072108;28;19921;-67
2023/10/30 02:50:59;;;;;;;;;;;;;;;;;;5071754;28;19913;-67
2023/10/30 02:53:25;;;;;;;;;;;;;;;;;;5065799;28;20386;-66
2023/10/30 02:55:51;;;;;;;;;;;;;;;;;;5071788;28;19965;-67
2023/10/30 02:58:17;;;;;;;;;;;;;;;;;;5065244;28;19916;-67
2023/10/30 03:00:43;;;;;;;;;;;;;;;;;;5068971;28;20013;-67
2023/10/30 03:03:09;;;;;;;;;;;;;;;;;;5071500;28;19999;-66
2023/10/30 03:05:35;;;;;;;;;;;;;;;;;;5071547;28;19912;-67
2023/10/30 03:08:01;;;;;;;;;;;;;;;;;;5072212;28;19912;-67
2023/10/30 03:10:27;;;;;;;;;;;;;;;;;;5068778;28;19921;-67
2023/10/30 03:12:53;;;;;;;;;;;;;;;;;;5071975;28;20291;-68
2023/10/30 03:15:19;;;;;;;;;;;;;;;;;;5071523;28;19955;-68
2023/10/30 03:17:45;;;;;;;;;;;;;;;;;;5068038;28;19998;-68
2023/10/30 03:20:11;;;;;;;;;;;;;;;;;;5071211;28;20368;-68
2023/10/30 03:22:37;;;;;;;;;;;;;;;;;;5068889;28;19916;-68
2023/10/30 03:25:03;;;;;;;;;;;;;;;;;;5071421;28;19928;-68
2023/10/30 03:27:29;;;;;;;;;;;;;;;;;;5070017;28;20403;-67
2023/10/30 03:29:55;;;;;;;;;;;;;;;;;;5070734;28;19944;-68
2023/10/30 03:32:21;;;;;;;;;;;;;;;;;;5071446;28;19923;-68
2023/10/30 03:34:47;;;;;;;;;;;;;;;;;;5070897;28;19921;-68
2023/10/30 03:37:13;;;;;;;;;;;;;;;;;;5065138;28;19966;-68
2023/10/30 03:39:39;;;;;;;;;;;;;;;;;;5070112;28;20384;-67
2023/10/30 03:42:05;;;;;;;;;;;;;;;;;;5069333;28;19966;-68
2023/10/30 03:44:30;;;;;;;;;;;;;;;;;;5071753;28;20362;-68
2023/10/30 03:46:56;;;;;;;;;;;;;;;;;;5071556;28;19916;-68
2023/10/30 03:49:22;;;;;;;;;;;;;;;;;;5070768;28;20011;-68
2023/10/30 03:51:48;;;;;;;;;;;;;;;;;;5071462;28;19936;-68
2023/10/30 03:54:14;;;;;;;;;;;;;;;;;;5069325;28;19955;-68
2023/10/30 03:56:40;;;;;;;;;;;;;;;;;;5069764;28;19916;-68
2023/10/30 03:59:06;;;;;;;;;;;;;;;;;;5068357;28;20019;-68
2023/10/30 04:01:32;;;;;;;;;;;;;;;;;;5069974;28;20419;-68
2023/10/30 04:03:58;;;;;;;;;;;;;;;;;;5073500;28;19922;-68
2023/10/30 04:06:24;;;;;;;;;;;;;;;;;;5075367;28;20034;-68
2023/10/30 04:08:50;;;;;;;;;;;;;;;;;;5074923;28;19912;-68
2023/10/30 04:11:16;;;;;;;;;;;;;;;;;;5069818;28;19913;-68
2023/10/30 04:13:42;;;;;;;;;;;;;;;;;;5076795;28;19917;-68
2023/10/30 04:16:07;;;;;;;;;;;;;;;;;;5074992;28;19974;-68
2023/10/30 04:18:33;;;;;;;;;;;;;;;;;;5074490;28;19982;-69
2023/10/30 04:20:59;;;;;;;;;;;;;;;;;;5074988;28;20019;-68
2023/10/30 04:23:25;;;;;;;;;;;;;;;;;;5064194;28;20395;-62
2023/10/30 04:25:51;;;;;;;;;;;;;;;;;;5067302;28;19932;-63
2023/10/30 04:28:17;;;;;;;;;;;;;;;;;;5074344;28;19956;-62
2023/10/30 04:30:43;;;;;;;;;;;;;;;;;;5074162;28;20367;-62
2023/10/30 04:33:09;;;;;;;;;;;;;;;;;;5074938;28;19944;-62
2023/10/30 04:35:35;;;;;;;;;;;;;;;;;;5066980;28;20011;-63
2023/10/30 04:38:01;;;;;;;;;;;;;;;;;;5075008;28;20384;-63
2023/10/30 04:40:27;;;;;;;;;;;;;;;;;;5072937;28;20188;-62
2023/10/30 04:42:53;;;;;;;;;;;;;;;;;;5066583;28;20273;-62
2023/10/30 04:45:18;;;;;;;;;;;;;;;;;;5072192;28;19951;-62
2023/10/30 04:47:44;;;;;;;;;;;;;;;;;;5074695;28;19959;-63
2023/10/30 04:50:10;;;;;;;;;;;;;;;;;;5073706;28;19919;-62
2023/10/30 04:52:36;;;;;;;;;;;;;;;;;;5074216;28;19981;-62
2023/10/30 04:55:02;;;;;;;;;;;;;;;;;;5065828;28;19916;-63
2023/10/30 04:57:28;;;;;;;;;;;;;;;;;;5074809;28;19964;-62
2023/10/30 04:59:54;;;;;;;;;;;;;;;;;;5073658;28;20054;-63
2023/10/30 05:02:20;;;;;;;;;;;;;;;;;;5070999;28;20000;-63
2023/10/30 05:04:46;;;;;;;;;;;;;;;;;;5085101;28;20325;-63
2023/10/30 05:07:12;;;;;;;;;;;;;;;;;;5083028;28;19928;-63
2023/10/30 05:09:37;;;;;;;;;;;;;;;;;;5078889;28;19966;-62
2023/10/30 05:12:03;;;;;;;;;;;;;;;;;;5076367;28;19952;-64
2023/10/30 05:14:29;;;;;;;;;;;;;;;;;;5073438;28;19916;-64
2023/10/30 05:16:55;;;;;;;;;;;;;;;;;;5075197;28;20371;-63
2023/10/30 05:19:21;;;;;;;;;;;;;;;;;;5071295;28;20368;-62
2023/10/30 05:21:47;;;;;;;;;;;;;;;;;;5079564;28;19956;-63
2023/10/30 05:24:13;;;;;;;;;;;;;;;;;;5074728;28;19920;-62
2023/10/30 05:26:39;;;;;;;;;;;;;;;;;;5074968;28;19961;-63
2023/10/30 05:29:05;;;;;;;;;;;;;;;;;;5077469;28;19996;-63
2023/10/30 05:31:31;;;;;;;;;;;;;;;;;;5068599;28;19963;-62
2023/10/30 05:33:56;;;;;;;;;;;;;;;;;;5071721;28;19959;-65
2023/10/30 05:36:22;;;;;;;;;;;;;;;;;;5072076;28;19920;-65
2023/10/30 05:38:48;;;;;;;;;;;;;;;;;;5072782;28;19923;-64
2023/10/30 05:41:14;;;;;;;;;;;;;;;;;;5075649;28;19919;-64
2023/10/30 05:43:40;;;;;;;;;;;;;;;;;;5079442;28;19913;-64
2023/10/30 05:46:06;;;;;;;;;;;;;;;;;;5076830;28;20444;-64
2023/10/30 05:48:32;;;;;;;;;;;;;;;;;;5080484;28;20380;-65
2023/10/30 05:50:58;;;;;;;;;;;;;;;;;;5077173;28;19998;-64
2023/10/30 05:53:24;;;;;;;;;;;;;;;;;;5063387;28;19943;-64
2023/10/30 05:55:50;;;;;;;;;;;;;;;;;;5082795;28;19911;-64
2023/10/30 05:58:17;;;;;;;;;;;;;;;;;;5073102;28;20320;-64
2023/10/30 06:00:43;;;;;;;;;;;;;;;;;;5070785;28;19932;-64
2023/10/30 06:03:09;;;;;;;;;;;;;;;;;;5074704;28;19921;-63
2023/10/30 06:05:35;;;;;;;;;;;;;;;;;;5069898;28;19975;-63
2023/10/30 06:08:01;;;;;;;;;;;;;;;;;;5074659;28;19978;-63
2023/10/30 06:10:28;;;;;;;;;;;;;;;;;;5065419;28;19916;-63
2023/10/30 06:12:53;;;;;;;;;;;;;;;;;;5075573;28;19967;-66
2023/10/30 06:15:19;;;;;;;;;;;;;;;;;;5060341;28;20396;-67
2023/10/30 06:17:45;;;;;;;;;;;;;;;;;;5074276;28;19918;-66
2023/10/30 06:20:11;;;;;;;;;;;;;;;;;;5073071;28;19954;-64
2023/10/30 06:22:37;;;;;;;;;;;;;;;;;;5075617;28;19920;-63
2023/10/30 06:25:03;;;;;;;;;;;;;;;;;;5072838;28;19964;-63
2023/10/30 06:27:29;;;;;;;;;;;;;;;;;;5079346;28;20005;-64
2023/10/30 06:29:55;;;;;;;;;;;;;;;;;;5078101;28;19954;-63
2023/10/30 06:32:21;;;;;;;;;;;;;;;;;;5074624;28;20007;-64
2023/10/30 06:34:47;;;;;;;;;;;;;;;;;;5068658;28;20372;-66
2023/10/30 06:37:14;;;;;;;;;;;;;;;;;;5072888;28;19923;-64
2023/10/30 06:39:40;;;;;;;;;;;;;;;;;;5073977;28;19913;-63
2023/10/30 06:42:05;;;;;;;;;;;;;;;;;;5069576;28;19919;-64
2023/10/30 06:44:31;;;;;;;;;;;;;;;;;;5071218;28;19999;-70
2023/10/30 06:46:59;;;;;;;;;;;;;;;;;;5071913;28;19971;-67
2023/10/30 06:49:24;;;;;;;;;;;;;;;;;;5077873;28;20688;-67
2023/10/30 06:51:50;;;;;;;;;;;;;;;;;;5076742;28;20003;-67
2023/10/30 06:54:16;;;;;;;;;;;;;;;;;;5073901;28;19912;-67
2023/10/30 06:56:42;;;;;;;;;;;;;;;;;;5074634;28;20380;-71
2023/10/30 06:59:14;;;;;;;;;;;;;;;;;;5073979;28;20003;-66
2023/10/30 07:01:42;;;;;;;;;;;;;;;;;;5075391;28;19938;-68
2023/10/30 07:04:07;;;;;;;;;;;;;;;;;;5053414;28;20019;-69
2023/10/30 07:06:33;;;;;;;;;;;;;;;;;;5067192;28;20031;-69
2023/10/30 07:08:59;;;;;;;;;;;;;;;;;;5072620;28;19935;-67
2023/10/30 07:11:25;;;;;;;;;;;;;;;;;;5067142;28;20019;-66
2023/10/30 07:13:51;;;;;;;;;;;;;;;;;;5073302;28;19986;-69
2023/10/30 07:16:17;;;;;;;;;;;;;;;;;;5067239;28;20216;-69
2023/10/30 07:18:44;;;;;;;;;;;;;;;;;;5081336;28;19962;-69
2023/10/30 07:21:10;;;;;;;;;;;;;;;;;;5077437;28;19912;-69
2023/10/30 07:23:36;;;;;;;;;;;;;;;;;;5053152;28;19923;-69
2023/10/30 07:26:02;;;;;;;;;;;;;;;;;;5072064;28;20352;-69
2023/10/30 07:28:27;;;;;;;;;;;;;;;;;;5071957;28;20015;-69
2023/10/30 07:30:53;;;;;;;;;;;;;;;;;;5074827;28;19962;-69
2023/10/30 07:33:19;;;;;;;;;;;;;;;;;;5064806;28;20002;-69
2023/10/30 07:35:46;;;;;;;;;;;;;;;;;;5069076;28;19967;-69
2023/10/30 07:38:12;;;;;;;;;;;;;;;;;;5076844;28;19912;-69
2023/10/30 07:40:38;;;;;;;;;;;;;;;;;;5053498;28;20291;-69
2023/10/30 07:43:04;;;;;;;;;;;;;;;;;;5071483;28;19952;-69
2023/10/30 07:45:30;;;;;;;;;;;;;;;;;;5069141;28;19912;-69
2023/10/30 07:47:56;;;;;;;;;;;;;;;;;;5076391;28;19956;-69
2023/10/30 07:50:22;;;;;;;;;;;;;;;;;;5069708;28;19944;-67
2023/10/30 07:52:48;;;;;;;;;;;;;;;;;;5076689;28;20036;-69
2023/10/30 07:55:14;;;;;;;;;;;;;;;;;;5078857;28;20020;-68
2023/10/30 07:57:40;;;;;;;;;;;;;;;;;;5075328;28;19923;-69
2023/10/30 08:00:07;;;;;;;;;;;;;;;;;;5069284;28;20482;-68
2023/10/30 08:02:33;;;;;;;;;;;;;;;;;;5076054;28;19917;-68
2023/10/30 08:04:59;;;;;;;;;;;;;;;;;;5070949;28;20007;-68
2023/10/30 08:07:25;;;;;;;;;;;;;;;;;;5066145;28;20273;-69
2023/10/30 08:09:51;;;;;;;;;;;;;;;;;;5064277;28;19913;-68
2023/10/30 08:12:17;;;;;;;;;;;;;;;;;;5071658;28;19923;-68
2023/10/30 08:14:43;;;;;;;;;;;;;;;;;;5070406;28;19999;-68
2023/10/30 08:17:09;;;;;;;;;;;;;;;;;;5069449;28;19917;-68
2023/10/30 08:19:35;;;;;;;;;;;;;;;;;;5063029;28;20003;-68
2023/10/30 08:22:01;;;;;;;;;;;;;;;;;;5069253;28;20008;-68
2023/10/30 08:24:27;;;;;;;;;;;;;;;;;;5070454;28;20577;-68
2023/10/30 08:26:53;;;;;;;;;;;;;;;;;;5069959;28;19923;-68
2023/10/30 08:29:19;;;;;;;;;;;;;;;;;;5069986;28;19912;-68
2023/10/30 08:31:44;;;;;;;;;;;;;;;;;;5068616;28;20311;-68
2023/10/30 08:34:10;;;;;;;;;;;;;;;;;;5070157;28;19973;-68
2023/10/30 08:36:36;;;;;;;;;;;;;;;;;;5066688;28;20329;-68
2023/10/30 08:39:03;;;;;;;;;;;;;;;;;;5068172;28;19913;-68
2023/10/30 08:41:28;;;;;;;;;;;;;;;;;;5068763;28;19913;-68
2023/10/30 08:43:54;;;;;;;;;;;;;;;;;;5069761;28;20348;-68
2023/10/30 08:46:20;;;;;;;;;;;;;;;;;;5069612;28;19955;-68
2023/10/30 08:48:46;;;;;;;;;;;;;;;;;;5065234;28;20726;-68
2023/10/30 08:51:12;;;;;;;;;;;;;;;;;;5070995;28;19919;-68
2023/10/30 08:53:39;;;;;;;;;;;;;;;;;;5066744;28;20292;-68
2023/10/30 08:56:05;;;;;;;;;;;;;;;;;;5069733;28;19913;-68
2023/10/30 08:58:31;;;;;;;;;;;;;;;;;;5071901;28;19917;-68
2023/10/30 09:00:58;;;;;;;;;;;;;;;;;;5071028;28;20445;-68
2023/10/30 09:03:23;;;;;;;;;;;;;;;;;;5071937;28;19920;-68
2023/10/30 09:05:49;;;;;;;;;;;;;;;;;;5071802;28;19932;-68
2023/10/30 09:08:15;;;;;;;;;;;;;;;;;;5072320;28;19921;-67
2023/10/30 09:10:41;;;;;;;;;;;;;;;;;;5069793;28;19913;-68
2023/10/30 09:13:07;;;;;;;;;;;;;;;;;;5071966;28;20591;-68
2023/10/30 09:15:33;;;;;;;;;;;;;;;;;;5043748;28;20031;-67
2023/10/30 09:17:59;;;;;;;;;;;;;;;;;;5071640;28;20257;-67
2023/10/30 09:20:25;;;;;;;;;;;;;;;;;;5073776;28;19912;-67
2023/10/30 09:22:51;;;;;;;;;;;;;;;;;;5072188;28;19916;-68
2023/10/30 09:25:17;;;;;;;;;;;;;;;;;;5069558;28;20364;-67
2023/10/30 09:27:44;;;;;;;;;;;;;;;;;;5073423;28;20361;-68
2023/10/30 09:30:10;;;;;;;;;;;;;;;;;;5071726;28;19912;-67
2023/10/30 09:32:35;;;;;;;;;;;;;;;;;;5069941;28;20394;-68
2023/10/30 09:35:03;;;;;;;;;;;;;;;;;;5067397;28;19918;-68
2023/10/30 09:37:29;;;;;;;;;;;;;;;;;;5070052;28;19916;-68
2023/10/30 09:39:54;;;;;;;;;;;;;;;;;;5065254;28;19979;-67
2023/10/30 09:42:20;;;;;;;;;;;;;;;;;;5070943;28;19916;-67
2023/10/30 09:44:46;;;;;;;;;;;;;;;;;;5072718;28;19934;-67
2023/10/30 09:47:12;;;;;;;;;;;;;;;;;;5071291;28;19964;-67
2023/10/30 09:49:38;;;;;;;;;;;;;;;;;;5068005;28;19923;-67
2023/10/30 09:52:05;;;;;;;;;;;;;;;;;;5068691;28;19915;-67
2023/10/30 09:54:31;;;;;;;;;;;;;;;;;;5052528;28;20360;-67
2023/10/30 09:56:57;;;;;;;;;;;;;;;;;;5071475;28;19943;-67
2023/10/30 09:59:23;;;;;;;;;;;;;;;;;;5071970;28;19917;-67
2023/10/30 10:01:49;;;;;;;;;;;;;;;;;;5071905;28;19926;-67
2023/10/30 10:04:15;;;;;;;;;;;;;;;;;;5069978;28;20005;-67
2023/10/30 10:06:42;;;;;;;;;;;;;;;;;;5071533;28;19925;-67
2023/10/30 10:09:08;;;;;;;;;;;;;;;;;;5069100;28;19924;-67
2023/10/30 10:11:35;;;;;;;;;;;;;;;;;;5071769;28;19985;-67
2023/10/30 10:14:01;;;;;;;;;;;;;;;;;;5069007;28;19916;-67
2023/10/30 10:16:29;;;;;;;;;;;;;;;;;;5072254;28;20265;-67
2023/10/30 10:18:55;;;;;;;;;;;;;;;;;;5067563;28;20318;-67
2023/10/30 10:21:22;;;;;;;;;;;;;;;;;;5069151;28;19916;-67
2023/10/30 10:23:48;;;;;;;;;;;;;;;;;;5069047;28;19976;-67
2023/10/30 10:26:14;;;;;;;;;;;;;;;;;;5071437;28;19931;-67
2023/10/30 10:28:40;;;;;;;;;;;;;;;;;;5070578;28;20304;-67
2023/10/30 10:31:06;;;;;;;;;;;;;;;;;;5067358;28;19963;-67
2023/10/30 10:33:32;;;;;;;;;;;;;;;;;;5071396;28;19913;-67
2023/10/30 10:36:00;;;;;;;;;;;;;;;;;;5066117;28;20434;-67
2023/10/30 10:38:26;;;;;;;;;;;;;;;;;;5063727;28;19912;-67
2023/10/30 10:40:52;;;;;;;;;;;;;;;;;;5067623;28;20011;-67
2023/10/30 10:43:18;;;;;;;;;;;;;;;;;;5070959;28;19974;-68
2023/10/30 10:45:44;;;;;;;;;;;;;;;;;;5069899;28;19978;-67
2023/10/30 10:48:10;;;;;;;;;;;;;;;;;;5071167;28;19968;-67
2023/10/30 10:50:36;;;;;;;;;;;;;;;;;;5071167;28;19916;-67
2023/10/30 10:53:02;;;;;;;;;;;;;;;;;;5070208;28;20388;-65
2023/10/30 10:55:28;;;;;;;;;;;;;;;;;;5071044;28;19928;-67
2023/10/30 10:57:54;;;;;;;;;;;;;;;;;;5069646;28;19999;-67
2023/10/30 11:00:20;;;;;;;;;;;;;;;;;;5069375;28;19916;-67
2023/10/30 11:02:46;;;;;;;;;;;;;;;;;;5067314;28;19916;-67
2023/10/30 11:05:12;;;;;;;;;;;;;;;;;;5049264;28;20447;-67
2023/10/30 11:07:38;;;;;;;;;;;;;;;;;;5066667;28;19958;-67
2023/10/30 11:10:04;;;;;;;;;;;;;;;;;;5070890;28;19920;-67
2023/10/30 11:12:30;;;;;;;;;;;;;;;;;;5068853;28;19916;-67
2023/10/30 11:14:56;;;;;;;;;;;;;;;;;;5070860;28;20400;-67
2023/10/30 11:17:22;;;;;;;;;;;;;;;;;;5072235;28;20027;-67
2023/10/30 11:19:48;;;;;;;;;;;;;;;;;;5064260;28;20288;-67
2023/10/30 11:22:15;;;;;;;;;;;;;;;;;;5065673;28;19919;-67
2023/10/30 11:24:41;;;;;;;;;;;;;;;;;;5068002;28;20035;-63
2023/10/30 11:27:07;;;;;;;;;;;;;;;;;;5069979;28;20399;-62
2023/10/30 11:29:33;;;;;;;;;;;;;;;;;;5069720;28;19916;-63
2023/10/30 11:32:00;;;;;;;;;;;;;;;;;;5071307;28;20098;-63
2023/10/30 11:34:26;;;;;;;;;;;;;;;;;;5068132;28;20019;-62
2023/10/30 11:36:52;;;;;;;;;;;;;;;;;;5070948;28;19995;-63
2023/10/30 11:39:19;;;;;;;;;;;;;;;;;;5070084;28;19916;-62
2023/10/30 11:41:49;;;;;;;;;;;;;;;;;;5065985;28;19916;-63
2023/10/30 11:44:15;;;;;;;;;;;;;;;;;;5070737;28;19912;-62
2023/10/30 11:46:41;;;;;;;;;;;;;;;;;;5066384;28;19973;-63
2023/10/30 11:49:07;;;;;;;;;;;;;;;;;;5070782;28;19960;-65
2023/10/30 11:51:33;;;;;;;;;;;;;;;;;;5063710;28;19935;-63
2023/10/30 11:54:00;;;;;;;;;;;;;;;;;;5069540;28;19912;-62
2023/10/30 11:56:26;;;;;;;;;;;;;;;;;;5070364;28;19920;-63
2023/10/30 11:58:52;;;;;;;;;;;;;;;;;;5069363;28;19948;-62
2023/10/30 12:01:18;;;;;;;;;;;;;;;;;;5069224;28;20103;-63
2023/10/30 12:03:43;;;;;;;;;;;;;;;;;;5066917;28;19916;-62
2023/10/30 12:06:09;;;;;;;;;;;;;;;;;;5070114;28;19955;-62
2023/10/30 12:08:35;;;;;;;;;;;;;;;;;;5069127;28;19959;-63
2023/10/30 12:11:01;;;;;;;;;;;;;;;;;;5067997;28;20026;-62
2023/10/30 12:13:27;;;;;;;;;;;;;;;;;;5066374;28;20003;-62
2023/10/30 12:15:53;;;;;;;;;;;;;;;;;;5070156;28;19912;-63
2023/10/30 12:18:19;;;;;;;;;;;;;;;;;;5070376;28;19944;-63
2023/10/30 12:20:45;;;;;;;;;;;;;;;;;;5069511;28;20011;-60
2023/10/30 12:23:11;;;;;;;;;;;;;;;;;;5069370;28;19995;-60
2023/10/30 12:25:37;;;;;;;;;;;;;;;;;;5071662;28;19920;-60
2023/10/30 12:28:05;;;;;;;;;;;;;;;;;;5074292;28;19972;-60
2023/10/30 12:30:31;;;;;;;;;;;;;;;;;;5072837;28;19957;-61
2023/10/30 12:32:57;;;;;;;;;;;;;;;;;;5070188;28;20023;-60
2023/10/30 12:35:23;;;;;;;;;;;;;;;;;;5071982;28;19916;-60
2023/10/30 12:37:49;;;;;;;;;;;;;;;;;;5070444;28;20011;-61
2023/10/30 12:40:15;;;;;;;;;;;;;;;;;;5070609;28;20364;-60
2023/10/30 12:42:41;;;;;;;;;;;;;;;;;;5073586;28;19951;-62
2023/10/30 12:45:07;;;;;;;;;;;;;;;;;;5073798;28;19913;-64
2023/10/30 12:47:33;;;;;;;;;;;;;;;;;;5073685;28;20419;-60
2023/10/30 12:49:59;;;;;;;;;;;;;;;;;;5069483;28;20031;-61
2023/10/30 12:52:25;;;;;;;;;;;;;;;;;;5069138;28;19945;-61
2023/10/30 12:54:51;;;;;;;;;;;;;;;;;;5056675;28;19912;-61
2023/10/30 12:57:16;;;;;;;;;;;;;;;;;;5073572;28;19913;-63
2023/10/30 12:59:42;;;;;;;;;;;;;;;;;;5072555;28;19995;-62
2023/10/30 13:02:08;;;;;;;;;;;;;;;;;;5068759;28;19921;-61
2023/10/30 13:04:34;;;;;;;;;;;;;;;;;;5069968;28;19954;-61
2023/10/30 13:07:00;;;;;;;;;;;;;;;;;;5067669;28;20400;-61
2023/10/30 13:09:26;;;;;;;;;;;;;;;;;;5066562;28;20301;-61
2023/10/30 13:11:52;;;;;;;;;;;;;;;;;;5073102;28;19920;-62
2023/10/30 13:14:18;;;;;;;;;;;;;;;;;;5072242;28;19920;-62
2023/10/30 13:16:44;;;;;;;;;;;;;;;;;;5073388;28;20006;-62
2023/10/30 13:19:10;;;;;;;;;;;;;;;;;;5072118;28;19970;-61
2023/10/30 13:21:36;;;;;;;;;;;;;;;;;;5073282;28;19927;-61
2023/10/30 13:24:03;;;;;;;;;;;;;;;;;;5070747;28;19963;-62
2023/10/30 13:26:29;;;;;;;;;;;;;;;;;;5070093;28;20431;-62
2023/10/30 13:28:55;;;;;;;;;;;;;;;;;;5071835;28;19917;-62
2023/10/30 13:31:21;;;;;;;;;;;;;;;;;;5072923;28;19947;-62
2023/10/30 13:33:48;;;;;;;;;;;;;;;;;;5072740;28;19919;-63
2023/10/30 13:36:14;;;;;;;;;;;;;;;;;;5072300;28;20256;-62
2023/10/30 13:38:40;;;;;;;;;;;;;;;;;;5070613;28;19960;-63
2023/10/30 13:41:06;;;;;;;;;;;;;;;;;;5070423;28;19916;-63
2023/10/30 13:43:31;;;;;;;;;;;;;;;;;;5072738;28;20010;-68
2023/10/30 13:45:57;;;;;;;;;;;;;;;;;;5070759;28;20000;-67
2023/10/30 13:48:25;;;;;;;;;;;;;;;;;;5072510;28;19920;-67
2023/10/30 13:50:51;;;;;;;;;;;;;;;;;;5072406;28;19913;-67
2023/10/30 13:53:17;;;;;;;;;;;;;;;;;;5062867;28;20059;-67
2023/10/30 13:55:43;;;;;;;;;;;;;;;;;;5064736;28;19958;-67
2023/10/30 13:58:09;;;;;;;;;;;;;;;;;;5069499;28;19948;-67
2023/10/30 14:00:35;;;;;;;;;;;;;;;;;;5071881;28;20279;-67
2023/10/30 14:03:01;;;;;;;;;;;;;;;;;;5068577;28;19917;-67
2023/10/30 14:05:28;;;;;;;;;;;;;;;;;;5072315;28;20352;-67
2023/10/30 14:07:54;;;;;;;;;;;;;;;;;;5067447;28;19927;-68
2023/10/30 14:10:19;;;;;;;;;;;;;;;;;;5063441;28;20328;-67
2023/10/30 14:12:45;;;;;;;;;;;;;;;;;;5071985;28;19919;-67
2023/10/30 14:15:11;;;;;;;;;;;;;;;;;;5068081;28;20333;-67
2023/10/30 14:17:37;;;;;;;;;;;;;;;;;;5068919;28;19956;-67
2023/10/30 14:20:03;;;;;;;;;;;;;;;;;;5068549;28;20003;-67
2023/10/30 14:22:29;;;;;;;;;;;;;;;;;;5070866;28;20026;-67
2023/10/30 14:24:56;;;;;;;;;;;;;;;;;;5069061;28;19959;-67
2023/10/30 14:27:22;;;;;;;;;;;;;;;;;;5071067;28;19924;-67
2023/10/30 14:29:48;;;;;;;;;;;;;;;;;;5071705;28;19978;-67
2023/10/30 14:32:14;;;;;;;;;;;;;;;;;;5069712;28;19995;-67
2023/10/30 14:34:40;;;;;;;;;;;;;;;;;;5056433;28;20376;-67
2023/10/30 14:37:06;;;;;;;;;;;;;;;;;;5066469;28;20003;-67
2023/10/30 14:39:31;;;;;;;;;;;;;;;;;;5070475;28;19909;-67
2023/10/30 14:41:57;;;;;;;;;;;;;;;;;;5065730;28;19954;-67
2023/10/30 14:44:23;;;;;;;;;;;;;;;;;;5071579;28;19908;-67
2023/10/30 14:46:49;;;;;;;;;;;;;;;;;;5064611;28;19917;-67
2023/10/30 14:49:15;;;;;;;;;;;;;;;;;;5065837;28;20374;-66
2023/10/30 14:51:41;;;;;;;;;;;;;;;;;;5063057;28;19972;-67
2023/10/30 14:54:07;;;;;;;;;;;;;;;;;;5063395;28;19908;-62
2023/10/30 14:56:33;;;;;;;;;;;;;;;;;;5062025;28;20280;-62
2023/10/30 14:58:59;;;;;;;;;;;;;;;;;;5058350;28;20317;-62
2023/10/30 15:01:25;;;;;;;;;;;;;;;;;;5065684;28;19953;-62
2023/10/30 15:03:50;;;;;;;;;;;;;;;;;;5069697;28;19963;-62
2023/10/30 15:06:16;;;;;;;;;;;;;;;;;;5070839;28;19959;-62
2023/10/30 15:08:43;;;;;;;;;;;;;;;;;;5069411;28;20421;-62
2023/10/30 15:11:08;;;;;;;;;;;;;;;;;;5067378;28;19917;-62
2023/10/30 15:13:34;;;;;;;;;;;;;;;;;;5066767;28;19908;-63
2023/10/30 15:16:00;;;;;;;;;;;;;;;;;;5072601;28;19912;-62
2023/10/30 15:18:26;;;;;;;;;;;;;;;;;;5073871;28;20007;-62
2023/10/30 15:20:52;;;;;;;;;;;;;;;;;;5066613;28;19920;-62
2023/10/30 15:23:18;;;;;;;;;;;;;;;;;;5068647;28;19927;-62
2023/10/30 15:25:44;;;;;;;;;;;;;;;;;;5068685;28;20002;-61
2023/10/30 15:28:10;;;;;;;;;;;;;;;;;;5065638;28;19956;-61
2023/10/30 15:30:36;;;;;;;;;;;;;;;;;;5065772;28;20375;-63
2023/10/30 15:33:02;;;;;;;;;;;;;;;;;;5068989;28;19951;-62
2023/10/30 15:35:28;;;;;;;;;;;;;;;;;;5071232;28;19919;-65
2023/10/30 15:37:53;;;;;;;;;;;;;;;;;;5067158;28;19920;-62
2023/10/30 15:40:19;;;;;;;;;;;;;;;;;;5067576;28;19912;-64
2023/10/30 15:42:45;;;;;;;;;;;;;;;;;;5066646;28;20617;-62
2023/10/30 15:45:11;;;;;;;;;;;;;;;;;;5064560;28;19941;-63
2023/10/30 15:47:37;;;;;;;;;;;;;;;;;;5065772;28;19964;-62
2023/10/30 15:50:03;;;;;;;;;;;;;;;;;;5049819;28;19951;-63
2023/10/30 15:52:29;;;;;;;;;;;;;;;;;;5070604;28;19951;-62
2023/10/30 15:54:55;;;;;;;;;;;;;;;;;;5060569;28;19975;-62
2023/10/30 15:57:21;;;;;;;;;;;;;;;;;;5070307;28;19916;-62
2023/10/30 15:59:47;;;;;;;;;;;;;;;;;;5072692;28;19960;-62
2023/10/30 16:02:13;;;;;;;;;;;;;;;;;;5073248;28;19920;-65
2023/10/30 16:04:38;;;;;;;;;;;;;;;;;;5071222;28;19923;-67
2023/10/30 16:07:05;;;;;;;;;;;;;;;;;;5072496;28;20356;-67
2023/10/30 16:09:31;;;;;;;;;;;;;;;;;;5069564;28;19913;-67
2023/10/30 16:11:57;;;;;;;;;;;;;;;;;;5072544;28;19974;-68
2023/10/30 16:14:23;;;;;;;;;;;;;;;;;;5073426;28;19912;-67
2023/10/30 16:16:49;;;;;;;;;;;;;;;;;;5066698;28;19916;-68
2023/10/30 16:19:15;;;;;;;;;;;;;;;;;;5078274;28;20379;-67
2023/10/30 16:21:41;;;;;;;;;;;;;;;;;;5069852;28;19913;-67
2023/10/30 16:24:07;;;;;;;;;;;;;;;;;;5071438;28;19951;-68
2023/10/30 16:26:33;;;;;;;;;;;;;;;;;;5065194;28;19931;-67
2023/10/30 16:28:59;;;;;;;;;;;;;;;;;;5076335;28;19921;-68
2023/10/30 16:31:25;;;;;;;;;;;;;;;;;;5070055;28;19959;-68
2023/10/30 16:33:51;;;;;;;;;;;;;;;;;;5064852;28;20352;-67
2023/10/30 16:36:17;;;;;;;;;;;;;;;;;;5070403;28;20028;-66